createdAt,value
2022-12-17T00:00:58.426Z,10.48
2022-12-17T00:04:18.826Z,11.57
2022-12-17T00:07:39.464Z,11.43
2022-12-17T00:10:59.427Z,11.52
2022-12-17T00:14:19.430Z,10.93
2022-12-17T00:17:39.526Z,9.93
2022-12-17T00:20:59.731Z,10.85
2022-12-17T00:24:19.653Z,11.13
2022-12-17T00:27:39.921Z,11.40
2022-12-17T00:31:00.150Z,11.25
2022-12-17T00:34:20.196Z,10.80
2022-12-17T00:37:40.424Z,11.52
2022-12-17T00:41:00.671Z,10.15
2022-12-17T00:44:20.734Z,11.18
2022-12-17T00:47:40.842Z,10.63
2022-12-17T00:51:01.016Z,10.18
2022-12-17T00:54:21.665Z,10.43
2022-12-17T00:57:41.908Z,9.35
2022-12-17T01:01:02.183Z,8.45
2022-12-17T01:04:22.475Z,10.00
2022-12-17T01:07:43.330Z,7.65
2022-12-17T01:11:03.137Z,7.63
2022-12-17T01:14:23.246Z,7.95
2022-12-17T01:17:43.536Z,8.00
2022-12-17T01:21:03.482Z,8.68
2022-12-17T01:24:23.852Z,6.30
2022-12-17T01:27:43.906Z,6.90
2022-12-17T01:31:04.116Z,7.03
2022-12-17T01:34:27.335Z,7.00
2022-12-17T01:37:47.363Z,6.75
2022-12-17T01:41:11.233Z,7.63
2022-12-17T01:45:08.974Z,7.38
2022-12-17T01:48:36.230Z,7.05
2022-12-17T01:51:56.123Z,6.53
2022-12-17T01:55:17.276Z,7.15
2022-12-17T01:58:37.553Z,7.22
2022-12-17T02:01:58.386Z,7.20
2022-12-17T02:05:18.755Z,6.75
2022-12-17T02:08:48.971Z,5.90
2022-12-17T02:12:22.408Z,6.28
2022-12-17T02:16:08.684Z,6.32
2022-12-17T02:19:59.318Z,6.38
2022-12-17T02:23:22.891Z,7.15
2022-12-17T02:27:05.117Z,5.68
2022-12-17T02:30:26.495Z,5.40
2022-12-17T02:33:47.398Z,4.53
2022-12-17T02:37:08.216Z,5.00
2022-12-17T02:40:28.841Z,4.95
2022-12-17T02:43:51.114Z,4.45
2022-12-17T02:47:12.895Z,4.32
2022-12-17T02:50:33.162Z,4.93
2022-12-17T02:53:53.769Z,5.10
2022-12-17T02:57:17.133Z,4.80
2022-12-17T03:00:38.057Z,4.15
2022-12-17T03:03:58.396Z,5.13
2022-12-17T03:07:18.455Z,4.55
2022-12-17T03:10:38.672Z,4.75
2022-12-17T03:13:58.800Z,4.80
2022-12-17T03:17:19.459Z,4.57
2022-12-17T03:20:39.701Z,4.88
2022-12-17T03:23:59.880Z,5.22
2022-12-17T03:27:20.008Z,4.10
2022-12-17T03:30:47.260Z,4.25
2022-12-17T03:34:08.864Z,4.40
2022-12-17T03:37:28.853Z,4.32
2022-12-17T03:40:49.248Z,4.40
2022-12-17T03:44:09.379Z,4.07
2022-12-17T03:47:46.327Z,4.47
2022-12-17T03:51:06.354Z,4.40
2022-12-17T03:54:26.527Z,4.15
2022-12-17T03:57:46.423Z,4.22
2022-12-17T04:01:06.596Z,4.57
2022-12-17T04:04:26.851Z,4.15
2022-12-17T04:07:46.928Z,4.40
2022-12-17T04:11:06.701Z,4.35
2022-12-17T04:14:26.964Z,3.92
2022-12-17T04:17:46.807Z,4.28
2022-12-17T04:21:06.923Z,4.13
2022-12-17T04:24:27.182Z,4.00
2022-12-17T04:27:47.451Z,3.80
2022-12-17T04:31:07.689Z,4.00
2022-12-17T04:34:27.499Z,3.83
2022-12-17T04:37:47.332Z,4.03
2022-12-17T04:41:08.012Z,5.15
2022-12-17T04:44:28.147Z,4.35
2022-12-17T04:47:48.232Z,3.72
2022-12-17T04:51:08.364Z,3.97
2022-12-17T04:54:28.155Z,4.03
2022-12-17T04:57:48.276Z,4.28
2022-12-17T05:01:12.664Z,4.70
2022-12-17T05:04:32.816Z,4.15
2022-12-17T05:07:55.622Z,4.32
2022-12-17T05:11:20.751Z,3.75
2022-12-17T05:14:40.902Z,4.07
2022-12-17T05:18:01.171Z,4.10
2022-12-17T05:21:21.120Z,3.90
2022-12-17T05:24:41.006Z,4.60
2022-12-17T05:28:01.095Z,3.92
2022-12-17T05:31:21.067Z,4.22
2022-12-17T05:34:41.331Z,4.13
2022-12-17T05:38:01.444Z,3.95
2022-12-17T05:41:21.648Z,3.80
2022-12-17T05:44:41.606Z,3.95
2022-12-17T05:48:01.575Z,4.03
2022-12-17T05:51:21.410Z,4.00
2022-12-17T05:55:01.293Z,4.15
2022-12-17T05:58:26.328Z,4.13
2022-12-17T06:01:46.621Z,5.45
2022-12-17T06:05:06.475Z,8.30
2022-12-17T06:08:27.395Z,11.80
2022-12-17T06:11:47.602Z,8.18
2022-12-17T06:15:07.790Z,6.93
2022-12-17T06:18:27.663Z,6.57
2022-12-17T06:21:47.746Z,4.63
2022-12-17T06:25:10.549Z,4.63
2022-12-17T06:28:31.232Z,5.55
2022-12-17T06:31:51.031Z,5.60
2022-12-17T06:35:11.146Z,6.18
2022-12-17T06:38:31.585Z,6.25
2022-12-17T06:41:51.494Z,6.82
2022-12-17T06:45:12.336Z,6.90
2022-12-17T06:48:32.523Z,7.32
2022-12-17T06:51:52.736Z,6.88
2022-12-17T06:55:13.009Z,7.32
2022-12-17T06:58:32.991Z,7.57
2022-12-17T07:01:53.141Z,7.53
2022-12-17T07:05:13.266Z,8.25
2022-12-17T07:08:33.155Z,7.20
2022-12-17T07:11:53.165Z,8.13
2022-12-17T07:15:13.735Z,9.82
2022-12-17T07:18:33.885Z,7.50
2022-12-17T07:21:54.200Z,6.63
2022-12-17T07:25:14.079Z,7.00
2022-12-17T07:28:34.288Z,8.75
2022-12-17T07:31:54.457Z,14.30
2022-12-17T07:35:14.613Z,10.40
2022-12-17T07:38:34.532Z,10.68
2022-12-17T07:41:54.745Z,10.02
2022-12-17T07:45:14.955Z,10.65
2022-12-17T07:48:35.343Z,10.15
2022-12-17T07:51:55.607Z,8.32
2022-12-17T07:55:18.371Z,8.77
2022-12-17T08:03:05.080Z,8.77
2022-12-17T08:06:25.244Z,11.20
2022-12-17T08:09:45.355Z,9.57
2022-12-17T08:13:14.982Z,12.30
2022-12-17T08:16:35.046Z,11.60
2022-12-17T08:19:55.123Z,13.55
2022-12-17T08:23:22.938Z,19.05
2022-12-17T08:26:47.621Z,13.52
2022-12-17T08:30:08.395Z,16.83
2022-12-17T08:33:28.650Z,22.25
2022-12-17T08:36:48.633Z,17.42
2022-12-17T08:40:09.072Z,30.90
2022-12-17T08:43:29.516Z,16.08
2022-12-17T08:46:49.845Z,12.45
2022-12-17T08:50:09.749Z,11.00
2022-12-17T08:53:34.687Z,11.48
2022-12-17T08:56:57.827Z,12.77
2022-12-17T09:00:18.204Z,15.98
2022-12-17T09:03:38.501Z,17.38
2022-12-17T09:06:59.024Z,13.02
2022-12-17T09:10:19.315Z,12.07
2022-12-17T09:13:39.483Z,12.40
2022-12-17T09:16:59.639Z,13.35
2022-12-17T09:20:21.778Z,15.23
2022-12-17T09:23:44.713Z,15.40
2022-12-17T09:27:04.890Z,17.58
2022-12-17T09:30:25.431Z,14.80
2022-12-17T09:33:45.521Z,16.75
2022-12-17T09:37:05.726Z,16.52
2022-12-17T09:40:29.549Z,16.38
2022-12-17T09:44:16.563Z,15.55
2022-12-17T09:47:49.038Z,15.90
2022-12-17T09:51:11.089Z,16.10
2022-12-17T09:54:43.493Z,14.43
2022-12-17T09:58:03.976Z,14.43
2022-12-17T10:01:38.185Z,15.15
2022-12-17T10:08:39.566Z,14.07
2022-12-17T10:12:00.183Z,12.82
2022-12-17T10:15:20.844Z,20.20
2022-12-17T10:18:41.385Z,20.90
2022-12-17T10:22:01.483Z,15.93
2022-12-17T10:25:45.651Z,13.50
2022-12-17T10:29:05.651Z,15.27
2022-12-17T10:32:34.895Z,13.02
2022-12-17T10:35:56.087Z,12.35
2022-12-17T10:39:16.331Z,14.23
2022-12-17T10:42:48.321Z,15.65
2022-12-17T10:46:22.642Z,15.98
2022-12-17T10:49:50.248Z,19.45
2022-12-17T10:53:10.515Z,21.15
2022-12-17T10:56:43.795Z,22.92
2022-12-17T11:00:04.942Z,23.25
2022-12-17T11:03:25.159Z,22.42
2022-12-17T11:06:52.238Z,23.05
2022-12-17T11:10:16.029Z,22.65
2022-12-17T11:14:04.246Z,22.15
2022-12-17T11:17:30.363Z,23.00
2022-12-17T11:21:16.936Z,23.20
2022-12-17T11:24:44.232Z,22.40
2022-12-17T11:28:09.353Z,22.67
2022-12-17T11:31:36.932Z,23.65
2022-12-17T11:35:16.807Z,22.45
2022-12-17T11:38:46.096Z,21.83
2022-12-17T11:42:19.372Z,21.33
2022-12-17T11:45:52.170Z,22.48
2022-12-17T11:49:15.193Z,21.27
2022-12-17T11:52:59.865Z,19.90
2022-12-17T11:56:45.141Z,21.73
2022-12-17T12:00:16.211Z,22.67
2022-12-17T12:03:48.826Z,20.48
2022-12-17T12:07:22.373Z,20.40
2022-12-17T12:11:04.242Z,19.98
2022-12-17T12:14:33.366Z,20.25
2022-12-17T12:18:31.315Z,20.48
2022-12-17T12:21:57.421Z,20.90
2022-12-17T12:25:40.642Z,21.55
2022-12-17T12:29:22.786Z,22.05
2022-12-17T12:33:17.285Z,21.88
2022-12-17T12:36:39.460Z,20.97
2022-12-17T12:40:08.454Z,20.85
2022-12-17T12:43:48.540Z,23.58
2022-12-17T12:47:17.769Z,24.90
2022-12-17T12:50:47.368Z,23.17
2022-12-17T12:54:17.720Z,23.02
2022-12-17T12:57:49.738Z,24.65
2022-12-17T13:01:14.256Z,23.92
2022-12-17T13:08:21.348Z,22.02
2022-12-17T13:11:29.554Z,22.52
2022-12-17T13:14:35.753Z,22.92
2022-12-17T13:17:55.182Z,22.42
2022-12-17T13:21:03.296Z,21.85
2022-12-17T13:24:27.360Z,23.10
2022-12-17T13:27:39.609Z,23.85
2022-12-17T13:30:42.055Z,24.90
2022-12-17T13:34:26.018Z,22.83
2022-12-17T13:37:49.054Z,23.73
2022-12-17T13:41:15.202Z,23.02
2022-12-17T13:44:34.005Z,22.00
2022-12-17T13:47:35.908Z,22.67
2022-12-17T13:50:37.409Z,22.90
2022-12-17T13:53:38.927Z,24.50
2022-12-17T13:56:40.452Z,24.80
2022-12-17T13:59:58.948Z,24.48
2022-12-17T14:03:10.749Z,22.45
2022-12-17T14:06:12.776Z,24.33
2022-12-17T14:09:18.194Z,23.48
2022-12-17T14:12:23.679Z,23.98
2022-12-17T14:15:28.541Z,23.92
2022-12-17T14:18:30.154Z,23.58
2022-12-17T14:21:32.148Z,24.58
2022-12-17T14:24:33.830Z,23.10
2022-12-17T14:27:36.644Z,21.60
2022-12-17T14:30:56.354Z,24.13
2022-12-17T14:34:08.295Z,23.65
2022-12-17T14:37:25.545Z,23.60
2022-12-17T14:40:27.435Z,22.27
2022-12-17T14:43:29.797Z,23.67
2022-12-17T14:46:33.976Z,23.08
2022-12-17T14:49:50.823Z,25.38
2022-12-17T14:52:57.664Z,22.63
2022-12-17T14:55:59.490Z,22.95
2022-12-17T14:59:02.502Z,23.58
2022-12-17T15:02:13.370Z,23.98
2022-12-17T15:05:16.535Z,24.42
2022-12-17T15:08:19.411Z,24.07
2022-12-17T15:11:25.512Z,23.05
2022-12-17T15:14:27.248Z,26.27
2022-12-17T15:17:28.953Z,25.02
2022-12-17T15:20:31.500Z,27.10
2022-12-17T15:23:33.568Z,23.48
2022-12-17T15:26:35.117Z,25.63
2022-12-17T15:29:36.673Z,24.55
2022-12-17T15:32:38.371Z,26.00
2022-12-17T15:35:40.896Z,25.20
2022-12-17T15:38:42.416Z,24.63
2022-12-17T15:42:02.357Z,24.70
2022-12-17T15:45:04.247Z,27.55
2022-12-17T15:48:06.326Z,27.38
2022-12-17T15:51:07.946Z,24.95
2022-12-17T15:54:09.478Z,25.27
2022-12-17T15:57:16.791Z,26.13
2022-12-17T16:00:20.358Z,22.65
2022-12-17T16:03:22.557Z,25.80
2022-12-17T16:06:24.170Z,24.85
2022-12-17T16:09:27.033Z,26.05
2022-12-17T16:12:28.606Z,26.27
2022-12-17T16:15:30.937Z,26.45
2022-12-17T16:18:32.869Z,25.42
2022-12-17T16:21:34.497Z,24.05
2022-12-17T16:24:36.222Z,26.73
2022-12-17T16:27:37.998Z,25.45
2022-12-17T16:30:45.913Z,27.77
2022-12-17T16:33:48.217Z,28.75
2022-12-17T16:36:49.762Z,24.83
2022-12-17T16:39:56.625Z,48.10
2022-12-17T16:43:01.474Z,24.90
2022-12-17T16:46:07.656Z,24.35
2022-12-17T16:49:18.593Z,25.60
2022-12-17T16:52:20.216Z,24.83
2022-12-17T16:55:21.794Z,24.55
2022-12-17T16:58:23.263Z,25.90
2022-12-17T17:01:27.306Z,29.13
2022-12-17T17:04:29.104Z,26.85
2022-12-17T17:07:30.675Z,30.95
2022-12-17T17:10:36.148Z,30.73
2022-12-17T17:13:41.151Z,32.53
2022-12-17T17:16:42.667Z,27.90
2022-12-17T17:19:44.361Z,27.88
2022-12-17T17:22:45.928Z,27.23
2022-12-17T17:25:58.260Z,30.23
2022-12-17T17:29:04.531Z,25.77
2022-12-17T17:32:11.015Z,26.97
2022-12-17T17:35:13.661Z,25.85
2022-12-17T17:38:15.684Z,26.08
2022-12-17T17:41:23.929Z,27.13
2022-12-17T17:44:28.389Z,25.25
2022-12-17T17:47:30.859Z,24.38
2022-12-17T17:50:32.382Z,26.88
2022-12-17T17:53:34.321Z,24.85
2022-12-17T17:56:38.679Z,23.73
2022-12-17T17:59:40.573Z,25.30
2022-12-17T18:02:42.276Z,25.90
2022-12-17T18:05:43.957Z,27.25
2022-12-17T18:08:48.835Z,29.10
2022-12-17T18:11:55.206Z,25.83
2022-12-17T18:18:18.285Z,30.02
2022-12-17T18:21:20.757Z,30.80
2022-12-17T18:24:23.208Z,28.58
2022-12-17T18:27:24.825Z,28.27
2022-12-17T18:30:26.447Z,30.48
2022-12-17T18:33:30.857Z,31.65
2022-12-17T18:36:38.396Z,28.90
2022-12-17T18:39:39.884Z,29.20
2022-12-17T18:43:00.020Z,29.25
2022-12-17T18:46:04.828Z,29.55
2022-12-17T18:49:12.392Z,30.17
2022-12-17T18:52:17.112Z,29.27
2022-12-17T18:55:19.062Z,30.02
2022-12-17T18:58:20.592Z,29.67
2022-12-17T19:01:27.210Z,30.88
2022-12-17T19:04:29.404Z,27.65
2022-12-17T19:07:30.951Z,26.60
2022-12-17T19:10:35.125Z,28.60
2022-12-17T19:13:36.863Z,28.65
2022-12-17T19:16:38.433Z,30.70
2022-12-17T19:19:40.059Z,31.20
2022-12-17T19:22:41.619Z,29.67
2022-12-17T19:25:43.154Z,31.75
2022-12-17T19:28:48.198Z,30.55
2022-12-17T19:31:50.105Z,30.17
2022-12-17T19:34:51.788Z,27.08
2022-12-17T19:37:53.275Z,26.30
2022-12-17T19:40:54.866Z,28.55
2022-12-17T19:43:59.322Z,28.73
2022-12-17T19:47:00.844Z,30.38
2022-12-17T19:50:02.488Z,29.58
2022-12-17T19:53:04.065Z,27.15
2022-12-17T19:56:26.600Z,28.33
2022-12-17T19:59:28.960Z,27.25
2022-12-17T20:02:33.014Z,27.38
2022-12-17T20:05:35.199Z,26.38
2022-12-17T20:08:37.400Z,27.10
2022-12-17T20:11:39.713Z,29.98
2022-12-17T20:14:41.300Z,26.02
2022-12-17T20:17:49.956Z,26.83
2022-12-17T20:20:51.540Z,27.13
2022-12-17T20:23:53.135Z,26.55
2022-12-17T20:26:54.997Z,27.52
2022-12-17T20:29:56.581Z,28.25
2022-12-17T20:32:58.178Z,25.55
2022-12-17T20:36:11.732Z,25.35
2022-12-17T20:39:13.302Z,24.50
2022-12-17T20:42:14.888Z,25.35
2022-12-17T20:45:16.451Z,25.55
2022-12-17T20:48:18.736Z,24.33
2022-12-17T20:51:25.951Z,25.13
2022-12-17T20:54:27.585Z,23.45
2022-12-17T20:57:29.179Z,22.85
2022-12-17T21:00:31.242Z,25.63
2022-12-17T21:03:33.168Z,23.88
2022-12-17T21:06:46.226Z,28.08
2022-12-17T21:09:47.812Z,24.35
2022-12-17T21:13:07.751Z,23.50
2022-12-17T21:16:16.052Z,22.48
2022-12-17T21:19:20.120Z,21.17
2022-12-17T21:22:22.119Z,25.73
2022-12-17T21:29:00.654Z,24.67
2022-12-17T21:32:03.092Z,26.13
2022-12-17T21:35:05.152Z,26.42
2022-12-17T21:38:06.799Z,26.48
2022-12-17T21:41:21.839Z,28.20
2022-12-17T21:44:23.339Z,27.70
2022-12-17T21:47:25.004Z,22.90
2022-12-17T21:50:35.521Z,20.42
2022-12-17T21:53:42.659Z,19.70
2022-12-17T21:56:44.400Z,21.80
2022-12-17T21:59:46.783Z,23.45
2022-12-17T22:02:48.657Z,20.40
2022-12-17T22:05:50.381Z,21.95
2022-12-17T22:08:56.280Z,29.35
2022-12-17T22:12:21.915Z,28.98
2022-12-17T22:15:24.257Z,25.67
2022-12-17T22:18:29.732Z,25.05
2022-12-17T22:21:36.095Z,22.95
2022-12-17T22:24:37.707Z,22.05
2022-12-17T22:27:40.614Z,21.88
2022-12-17T22:31:00.817Z,19.73
2022-12-17T22:35:11.034Z,20.45
2022-12-17T22:41:23.676Z,21.05
2022-12-17T22:44:31.104Z,22.08
2022-12-17T22:44:45.083Z,22.05
2022-12-17T22:47:31.204Z,21.20
2022-12-17T22:50:35.045Z,22.27
2022-12-17T22:53:45.447Z,23.05
2022-12-17T22:57:31.441Z,21.75
2022-12-17T23:00:20.248Z,24.92
2022-12-17T23:03:21.960Z,25.83
2022-12-17T23:06:23.881Z,24.05
2022-12-17T23:09:25.454Z,23.98
2022-12-17T23:12:45.290Z,26.38
2022-12-17T23:15:46.917Z,25.20
2022-12-17T23:18:52.092Z,29.83
2022-12-17T23:21:53.714Z,24.23
2022-12-17T23:24:55.256Z,24.95
2022-12-17T23:27:56.831Z,25.98
2022-12-17T23:30:58.434Z,24.15
2022-12-17T23:34:00.555Z,25.92
2022-12-17T23:37:02.082Z,26.15
2022-12-17T23:40:05.492Z,22.25
2022-12-17T23:43:07.008Z,24.13
2022-12-17T23:46:10.059Z,23.83
2022-12-17T23:49:11.921Z,23.63
2022-12-17T23:52:13.586Z,22.67
2022-12-17T23:55:15.144Z,20.60
2022-12-17T23:58:16.856Z,22.17
